sensor_id;sensor_type;location;lat;lon;timestamp;P1;durP1;ratioP1;P2;durP2;ratioP2
70908;SDS011;58554;52.006;5.926;2022-10-16T00:01:04;4.63;;;3.10;;
70908;SDS011;58554;52.006;5.926;2022-10-16T00:03:33;6.10;;;3.53;;
70908;SDS011;58554;52.006;5.926;2022-10-16T00:06:03;4.50;;;2.93;;
70908;SDS011;58554;52.006;5.926;2022-10-16T00:08:31;7.47;;;3.57;;
70908;SDS011;58554;52.006;5.926;2022-10-16T00:11:02;7.27;;;3.60;;
70908;SDS011;58554;52.006;5.926;2022-10-16T00:13:32;6.13;;;3.70;;
70908;SDS011;58554;52.006;5.926;2022-10-16T00:16:01;6.10;;;3.58;;
70908;SDS011;58554;52.006;5.926;2022-10-16T00:18:28;5.73;;;3.27;;
70908;SDS011;58554;52.006;5.926;2022-10-16T00:21:03;6.70;;;3.20;;
70908;SDS011;58554;52.006;5.926;2022-10-16T00:23:33;6.37;;;3.23;;
70908;SDS011;58554;52.006;5.926;2022-10-16T00:26:01;6.30;;;3.37;;
70908;SDS011;58554;52.006;5.926;2022-10-16T00:28:31;4.90;;;3.30;;
70908;SDS011;58554;52.006;5.926;2022-10-16T00:30:59;5.63;;;3.47;;
70908;SDS011;58554;52.006;5.926;2022-10-16T00:33:29;5.73;;;3.63;;
70908;SDS011;58554;52.006;5.926;2022-10-16T00:35:57;5.63;;;3.50;;
70908;SDS011;58554;52.006;5.926;2022-10-16T00:38:26;6.03;;;3.55;;
70908;SDS011;58554;52.006;5.926;2022-10-16T00:40:53;5.87;;;3.60;;
70908;SDS011;58554;52.006;5.926;2022-10-16T00:43:33;5.28;;;3.95;;
70908;SDS011;58554;52.006;5.926;2022-10-16T00:46:08;7.45;;;4.18;;
70908;SDS011;58554;52.006;5.926;2022-10-16T00:48:42;6.97;;;4.10;;
70908;SDS011;58554;52.006;5.926;2022-10-16T00:51:14;5.37;;;3.73;;
70908;SDS011;58554;52.006;5.926;2022-10-16T00:53:46;7.22;;;3.90;;
70908;SDS011;58554;52.006;5.926;2022-10-16T00:56:14;8.77;;;4.17;;
70908;SDS011;58554;52.006;5.926;2022-10-16T00:58:40;6.57;;;4.18;;
70908;SDS011;58554;52.006;5.926;2022-10-16T01:01:07;6.35;;;3.97;;
70908;SDS011;58554;52.006;5.926;2022-10-16T01:03:35;5.77;;;3.80;;
70908;SDS011;58554;52.006;5.926;2022-10-16T01:06:06;6.75;;;3.90;;
70908;SDS011;58554;52.006;5.926;2022-10-16T01:08:55;6.33;;;3.80;;
70908;SDS011;58554;52.006;5.926;2022-10-16T01:11:39;6.47;;;4.00;;
70908;SDS011;58554;52.006;5.926;2022-10-16T01:14:22;5.53;;;3.63;;
70908;SDS011;58554;52.006;5.926;2022-10-16T01:17:01;6.43;;;3.70;;
70908;SDS011;58554;52.006;5.926;2022-10-16T01:19:44;6.35;;;3.83;;
70908;SDS011;58554;52.006;5.926;2022-10-16T01:22:32;6.40;;;3.92;;
70908;SDS011;58554;52.006;5.926;2022-10-16T01:25:15;6.23;;;3.93;;
70908;SDS011;58554;52.006;5.926;2022-10-16T01:27:57;6.72;;;3.80;;
70908;SDS011;58554;52.006;5.926;2022-10-16T01:30:30;6.10;;;3.80;;
70908;SDS011;58554;52.006;5.926;2022-10-16T01:33:01;6.30;;;3.90;;
70908;SDS011;58554;52.006;5.926;2022-10-16T01:35:36;7.13;;;4.03;;
70908;SDS011;58554;52.006;5.926;2022-10-16T01:38:10;5.47;;;3.90;;
70908;SDS011;58554;52.006;5.926;2022-10-16T01:40:45;5.77;;;4.10;;
70908;SDS011;58554;52.006;5.926;2022-10-16T01:43:20;5.40;;;3.70;;
70908;SDS011;58554;52.006;5.926;2022-10-16T01:45:53;8.60;;;4.50;;
70908;SDS011;58554;52.006;5.926;2022-10-16T01:48:21;6.00;;;4.00;;
70908;SDS011;58554;52.006;5.926;2022-10-16T01:50:52;7.67;;;3.77;;
70908;SDS011;58554;52.006;5.926;2022-10-16T01:53:26;5.67;;;3.90;;
70908;SDS011;58554;52.006;5.926;2022-10-16T01:55:54;5.70;;;3.75;;
70908;SDS011;58554;52.006;5.926;2022-10-16T01:58:27;8.80;;;4.27;;
70908;SDS011;58554;52.006;5.926;2022-10-16T02:00:58;5.20;;;3.70;;
70908;SDS011;58554;52.006;5.926;2022-10-16T02:03:27;5.68;;;3.70;;
70908;SDS011;58554;52.006;5.926;2022-10-16T02:05:55;6.97;;;3.80;;
70908;SDS011;58554;52.006;5.926;2022-10-16T02:08:25;5.78;;;3.90;;
70908;SDS011;58554;52.006;5.926;2022-10-16T02:10:55;6.77;;;3.37;;
70908;SDS011;58554;52.006;5.926;2022-10-16T02:13:25;5.27;;;3.43;;
70908;SDS011;58554;52.006;5.926;2022-10-16T02:15:59;7.22;;;3.70;;
70908;SDS011;58554;52.006;5.926;2022-10-16T02:18:25;8.30;;;3.77;;
70908;SDS011;58554;52.006;5.926;2022-10-16T02:20:54;6.10;;;3.80;;
70908;SDS011;58554;52.006;5.926;2022-10-16T02:23:30;8.53;;;3.80;;
70908;SDS011;58554;52.006;5.926;2022-10-16T02:26:11;6.10;;;3.03;;
70908;SDS011;58554;52.006;5.926;2022-10-16T02:28:53;9.20;;;3.67;;
70908;SDS011;58554;52.006;5.926;2022-10-16T02:31:28;5.00;;;3.60;;
70908;SDS011;58554;52.006;5.926;2022-10-16T02:34:01;5.43;;;3.50;;
70908;SDS011;58554;52.006;5.926;2022-10-16T02:36:32;5.95;;;3.38;;
70908;SDS011;58554;52.006;5.926;2022-10-16T02:39:02;5.75;;;3.42;;
70908;SDS011;58554;52.006;5.926;2022-10-16T02:41:31;5.40;;;3.40;;
70908;SDS011;58554;52.006;5.926;2022-10-16T02:44:01;4.77;;;3.50;;
70908;SDS011;58554;52.006;5.926;2022-10-16T02:46:27;6.47;;;3.22;;
70908;SDS011;58554;52.006;5.926;2022-10-16T02:48:54;6.33;;;3.50;;
70908;SDS011;58554;52.006;5.926;2022-10-16T02:51:21;5.30;;;3.10;;
70908;SDS011;58554;52.006;5.926;2022-10-16T02:53:47;5.72;;;3.50;;
70908;SDS011;58554;52.006;5.926;2022-10-16T02:56:14;5.30;;;3.50;;
70908;SDS011;58554;52.006;5.926;2022-10-16T02:58:40;4.03;;;3.00;;
70908;SDS011;58554;52.006;5.926;2022-10-16T03:01:09;4.32;;;3.00;;
70908;SDS011;58554;52.006;5.926;2022-10-16T03:03:36;5.07;;;3.10;;
70908;SDS011;58554;52.006;5.926;2022-10-16T03:06:02;4.67;;;3.07;;
70908;SDS011;58554;52.006;5.926;2022-10-16T03:08:29;4.67;;;3.30;;
70908;SDS011;58554;52.006;5.926;2022-10-16T03:10:55;4.97;;;3.28;;
70908;SDS011;58554;52.006;5.926;2022-10-16T03:13:22;4.80;;;2.90;;
70908;SDS011;58554;52.006;5.926;2022-10-16T03:15:48;5.45;;;3.28;;
70908;SDS011;58554;52.006;5.926;2022-10-16T03:18:17;5.53;;;3.13;;
70908;SDS011;58554;52.006;5.926;2022-10-16T03:20:44;5.13;;;3.23;;
70908;SDS011;58554;52.006;5.926;2022-10-16T03:23:10;7.40;;;3.15;;
70908;SDS011;58554;52.006;5.926;2022-10-16T03:25:37;5.32;;;3.00;;
70908;SDS011;58554;52.006;5.926;2022-10-16T03:28:05;4.93;;;2.88;;
70908;SDS011;58554;52.006;5.926;2022-10-16T03:30:31;5.20;;;3.40;;
70908;SDS011;58554;52.006;5.926;2022-10-16T03:32:58;4.25;;;3.10;;
70908;SDS011;58554;52.006;5.926;2022-10-16T03:35:27;3.83;;;2.87;;
70908;SDS011;58554;52.006;5.926;2022-10-16T03:37:53;4.53;;;3.00;;
70908;SDS011;58554;52.006;5.926;2022-10-16T03:40:20;4.85;;;3.05;;
70908;SDS011;58554;52.006;5.926;2022-10-16T03:42:46;6.53;;;3.40;;
70908;SDS011;58554;52.006;5.926;2022-10-16T03:45:12;4.90;;;3.00;;
70908;SDS011;58554;52.006;5.926;2022-10-16T03:47:39;6.28;;;3.00;;
70908;SDS011;58554;52.006;5.926;2022-10-16T03:50:07;6.72;;;2.88;;
70908;SDS011;58554;52.006;5.926;2022-10-16T03:52:36;5.67;;;3.20;;
70908;SDS011;58554;52.006;5.926;2022-10-16T03:55:03;5.00;;;2.97;;
70908;SDS011;58554;52.006;5.926;2022-10-16T03:57:31;5.33;;;2.97;;
70908;SDS011;58554;52.006;5.926;2022-10-16T03:59:58;5.03;;;3.10;;
70908;SDS011;58554;52.006;5.926;2022-10-16T04:02:24;6.20;;;2.80;;
70908;SDS011;58554;52.006;5.926;2022-10-16T04:04:51;4.20;;;2.78;;
70908;SDS011;58554;52.006;5.926;2022-10-16T04:07:17;4.67;;;2.87;;
70908;SDS011;58554;52.006;5.926;2022-10-16T04:09:47;4.67;;;3.17;;
70908;SDS011;58554;52.006;5.926;2022-10-16T04:12:13;4.47;;;2.83;;
70908;SDS011;58554;52.006;5.926;2022-10-16T04:14:40;4.47;;;3.10;;
70908;SDS011;58554;52.006;5.926;2022-10-16T04:17:06;4.88;;;2.60;;
70908;SDS011;58554;52.006;5.926;2022-10-16T04:19:32;6.20;;;2.80;;
70908;SDS011;58554;52.006;5.926;2022-10-16T04:21:59;5.65;;;2.80;;
70908;SDS011;58554;52.006;5.926;2022-10-16T04:24:25;5.60;;;2.70;;
70908;SDS011;58554;52.006;5.926;2022-10-16T04:26:54;6.53;;;2.70;;
70908;SDS011;58554;52.006;5.926;2022-10-16T04:29:21;6.77;;;2.83;;
70908;SDS011;58554;52.006;5.926;2022-10-16T04:31:47;4.83;;;2.87;;
70908;SDS011;58554;52.006;5.926;2022-10-16T04:34:14;4.53;;;2.83;;
70908;SDS011;58554;52.006;5.926;2022-10-16T04:36:40;6.70;;;2.67;;
70908;SDS011;58554;52.006;5.926;2022-10-16T04:39:06;4.90;;;2.57;;
70908;SDS011;58554;52.006;5.926;2022-10-16T04:41:33;4.85;;;2.92;;
70908;SDS011;58554;52.006;5.926;2022-10-16T04:44:02;4.90;;;2.90;;
70908;SDS011;58554;52.006;5.926;2022-10-16T04:46:28;5.23;;;2.73;;
70908;SDS011;58554;52.006;5.926;2022-10-16T04:48:55;5.30;;;2.88;;
70908;SDS011;58554;52.006;5.926;2022-10-16T04:51:21;4.60;;;3.00;;
70908;SDS011;58554;52.006;5.926;2022-10-16T04:53:48;4.90;;;2.80;;
70908;SDS011;58554;52.006;5.926;2022-10-16T04:56:14;4.32;;;2.50;;
70908;SDS011;58554;52.006;5.926;2022-10-16T04:58:40;5.67;;;2.80;;
70908;SDS011;58554;52.006;5.926;2022-10-16T05:01:09;4.65;;;2.70;;
70908;SDS011;58554;52.006;5.926;2022-10-16T05:03:36;5.72;;;2.78;;
70908;SDS011;58554;52.006;5.926;2022-10-16T05:06:04;3.90;;;2.63;;
70908;SDS011;58554;52.006;5.926;2022-10-16T05:08:32;5.20;;;3.05;;
70908;SDS011;58554;52.006;5.926;2022-10-16T05:10:58;4.53;;;2.80;;
70908;SDS011;58554;52.006;5.926;2022-10-16T05:13:25;5.53;;;2.73;;
70908;SDS011;58554;52.006;5.926;2022-10-16T05:15:52;4.10;;;2.50;;
70908;SDS011;58554;52.006;5.926;2022-10-16T05:18:20;4.20;;;2.73;;
70908;SDS011;58554;52.006;5.926;2022-10-16T05:20:47;4.77;;;2.87;;
70908;SDS011;58554;52.006;5.926;2022-10-16T05:23:13;4.60;;;3.00;;
70908;SDS011;58554;52.006;5.926;2022-10-16T05:25:40;5.37;;;2.60;;
70908;SDS011;58554;52.006;5.926;2022-10-16T05:28:06;7.72;;;2.83;;
70908;SDS011;58554;52.006;5.926;2022-10-16T05:30:32;5.70;;;2.90;;
70908;SDS011;58554;52.006;5.926;2022-10-16T05:32:59;6.37;;;2.63;;
70908;SDS011;58554;52.006;5.926;2022-10-16T05:35:28;5.10;;;2.90;;
70908;SDS011;58554;52.006;5.926;2022-10-16T05:37:54;5.20;;;2.90;;
70908;SDS011;58554;52.006;5.926;2022-10-16T05:40:21;5.07;;;2.90;;
70908;SDS011;58554;52.006;5.926;2022-10-16T05:42:47;4.87;;;2.37;;
70908;SDS011;58554;52.006;5.926;2022-10-16T05:45:14;4.63;;;2.80;;
70908;SDS011;58554;52.006;5.926;2022-10-16T05:47:40;7.37;;;2.83;;
70908;SDS011;58554;52.006;5.926;2022-10-16T05:50:07;4.40;;;2.50;;
70908;SDS011;58554;52.006;5.926;2022-10-16T05:52:37;4.20;;;2.83;;
70908;SDS011;58554;52.006;5.926;2022-10-16T05:55:04;5.30;;;2.80;;
70908;SDS011;58554;52.006;5.926;2022-10-16T05:57:32;4.57;;;2.90;;
70908;SDS011;58554;52.006;5.926;2022-10-16T05:59:58;5.20;;;2.93;;
70908;SDS011;58554;52.006;5.926;2022-10-16T06:02:25;5.00;;;3.00;;
70908;SDS011;58554;52.006;5.926;2022-10-16T06:04:51;4.80;;;2.90;;
70908;SDS011;58554;52.006;5.926;2022-10-16T06:07:18;5.73;;;2.70;;
70908;SDS011;58554;52.006;5.926;2022-10-16T06:09:50;5.10;;;3.10;;
70908;SDS011;58554;52.006;5.926;2022-10-16T06:12:18;7.00;;;3.00;;
70908;SDS011;58554;52.006;5.926;2022-10-16T06:14:46;5.33;;;2.90;;
70908;SDS011;58554;52.006;5.926;2022-10-16T06:17:12;4.90;;;3.00;;
70908;SDS011;58554;52.006;5.926;2022-10-16T06:19:40;7.17;;;3.10;;
70908;SDS011;58554;52.006;5.926;2022-10-16T06:22:06;5.00;;;3.20;;
70908;SDS011;58554;52.006;5.926;2022-10-16T06:24:33;6.03;;;3.47;;
70908;SDS011;58554;52.006;5.926;2022-10-16T06:27:02;6.72;;;3.28;;
70908;SDS011;58554;52.006;5.926;2022-10-16T06:29:29;6.28;;;3.50;;
70908;SDS011;58554;52.006;5.926;2022-10-16T06:31:55;5.60;;;3.17;;
70908;SDS011;58554;52.006;5.926;2022-10-16T06:34:22;5.13;;;3.13;;
70908;SDS011;58554;52.006;5.926;2022-10-16T06:36:49;5.20;;;3.35;;
70908;SDS011;58554;52.006;5.926;2022-10-16T06:39:15;5.85;;;3.30;;
70908;SDS011;58554;52.006;5.926;2022-10-16T06:41:42;4.90;;;3.15;;
70908;SDS011;58554;52.006;5.926;2022-10-16T06:44:11;5.53;;;3.40;;
70908;SDS011;58554;52.006;5.926;2022-10-16T06:46:37;6.88;;;3.08;;
70908;SDS011;58554;52.006;5.926;2022-10-16T06:49:04;5.38;;;2.90;;
70908;SDS011;58554;52.006;5.926;2022-10-16T06:51:30;7.53;;;3.20;;
70908;SDS011;58554;52.006;5.926;2022-10-16T06:53:56;7.87;;;3.23;;
70908;SDS011;58554;52.006;5.926;2022-10-16T06:56:24;6.83;;;3.47;;
70908;SDS011;58554;52.006;5.926;2022-10-16T06:58:52;6.65;;;3.47;;
70908;SDS011;58554;52.006;5.926;2022-10-16T07:01:23;4.73;;;3.33;;
70908;SDS011;58554;52.006;5.926;2022-10-16T07:03:51;7.83;;;3.37;;
70908;SDS011;58554;52.006;5.926;2022-10-16T07:06:19;5.43;;;3.00;;
70908;SDS011;58554;52.006;5.926;2022-10-16T07:08:48;4.65;;;3.28;;
70908;SDS011;58554;52.006;5.926;2022-10-16T07:11:16;6.77;;;3.30;;
70908;SDS011;58554;52.006;5.926;2022-10-16T07:13:45;5.17;;;3.00;;
70908;SDS011;58554;52.006;5.926;2022-10-16T07:16:14;5.68;;;3.20;;
70908;SDS011;58554;52.006;5.926;2022-10-16T07:18:45;6.93;;;2.97;;
70908;SDS011;58554;52.006;5.926;2022-10-16T07:21:13;5.97;;;3.23;;
70908;SDS011;58554;52.006;5.926;2022-10-16T07:23:42;4.90;;;3.10;;
70908;SDS011;58554;52.006;5.926;2022-10-16T07:26:08;5.93;;;3.43;;
70908;SDS011;58554;52.006;5.926;2022-10-16T07:28:36;7.57;;;3.22;;
70908;SDS011;58554;52.006;5.926;2022-10-16T07:31:05;4.83;;;3.03;;
70908;SDS011;58554;52.006;5.926;2022-10-16T07:33:34;6.67;;;2.90;;
70908;SDS011;58554;52.006;5.926;2022-10-16T07:36:04;6.60;;;3.00;;
70908;SDS011;58554;52.006;5.926;2022-10-16T07:38:31;4.83;;;3.10;;
70908;SDS011;58554;52.006;5.926;2022-10-16T07:40:58;4.73;;;3.33;;
70908;SDS011;58554;52.006;5.926;2022-10-16T07:43:26;4.88;;;3.17;;
70908;SDS011;58554;52.006;5.926;2022-10-16T07:45:53;6.60;;;3.50;;
70908;SDS011;58554;52.006;5.926;2022-10-16T07:48:20;6.45;;;3.70;;
70908;SDS011;58554;52.006;5.926;2022-10-16T07:50:49;7.35;;;3.42;;
70908;SDS011;58554;52.006;5.926;2022-10-16T07:53:18;6.33;;;3.30;;
70908;SDS011;58554;52.006;5.926;2022-10-16T07:55:44;5.10;;;3.37;;
70908;SDS011;58554;52.006;5.926;2022-10-16T07:58:11;6.57;;;3.30;;
70908;SDS011;58554;52.006;5.926;2022-10-16T08:00:37;5.90;;;3.47;;
70908;SDS011;58554;52.006;5.926;2022-10-16T08:03:04;5.93;;;3.27;;
70908;SDS011;58554;52.006;5.926;2022-10-16T08:05:31;5.27;;;3.30;;
70908;SDS011;58554;52.006;5.926;2022-10-16T08:07:59;5.70;;;2.93;;
70908;SDS011;58554;52.006;5.926;2022-10-16T08:10:29;6.57;;;3.40;;
70908;SDS011;58554;52.006;5.926;2022-10-16T08:12:55;7.30;;;3.03;;
70908;SDS011;58554;52.006;5.926;2022-10-16T08:15:21;6.10;;;3.27;;
70908;SDS011;58554;52.006;5.926;2022-10-16T08:17:57;6.95;;;3.50;;
70908;SDS011;58554;52.006;5.926;2022-10-16T08:20:27;7.07;;;3.43;;
70908;SDS011;58554;52.006;5.926;2022-10-16T08:22:55;5.03;;;3.17;;
70908;SDS011;58554;52.006;5.926;2022-10-16T08:25:22;9.63;;;3.60;;
70908;SDS011;58554;52.006;5.926;2022-10-16T08:27:53;6.07;;;3.07;;
70908;SDS011;58554;52.006;5.926;2022-10-16T08:30:20;7.30;;;3.33;;
70908;SDS011;58554;52.006;5.926;2022-10-16T08:32:49;6.93;;;3.78;;
70908;SDS011;58554;52.006;5.926;2022-10-16T08:35:16;5.28;;;3.10;;
70908;SDS011;58554;52.006;5.926;2022-10-16T08:37:43;6.60;;;3.17;;
70908;SDS011;58554;52.006;5.926;2022-10-16T08:40:13;5.43;;;3.28;;
70908;SDS011;58554;52.006;5.926;2022-10-16T08:42:49;5.43;;;3.27;;
70908;SDS011;58554;52.006;5.926;2022-10-16T08:45:50;6.60;;;3.67;;
70908;SDS011;58554;52.006;5.926;2022-10-16T08:48:39;7.30;;;4.20;;
70908;SDS011;58554;52.006;5.926;2022-10-16T08:51:13;6.87;;;4.10;;
70908;SDS011;58554;52.006;5.926;2022-10-16T08:53:51;6.57;;;4.22;;
70908;SDS011;58554;52.006;5.926;2022-10-16T08:56:22;8.17;;;3.80;;
70908;SDS011;58554;52.006;5.926;2022-10-16T08:58:54;6.20;;;3.70;;
70908;SDS011;58554;52.006;5.926;2022-10-16T09:01:23;6.43;;;3.83;;
70908;SDS011;58554;52.006;5.926;2022-10-16T09:04:22;8.82;;;3.53;;
70908;SDS011;58554;52.006;5.926;2022-10-16T09:07:20;6.27;;;3.57;;
70908;SDS011;58554;52.006;5.926;2022-10-16T09:10:00;5.17;;;3.40;;
70908;SDS011;58554;52.006;5.926;2022-10-16T09:12:45;7.97;;;3.13;;
70908;SDS011;58554;52.006;5.926;2022-10-16T09:15:27;6.88;;;3.38;;
70908;SDS011;58554;52.006;5.926;2022-10-16T09:18:03;6.65;;;3.20;;
70908;SDS011;58554;52.006;5.926;2022-10-16T09:20:42;6.30;;;2.53;;
70908;SDS011;58554;52.006;5.926;2022-10-16T09:23:17;6.67;;;2.57;;
70908;SDS011;58554;52.006;5.926;2022-10-16T09:25:48;5.80;;;2.72;;
70908;SDS011;58554;52.006;5.926;2022-10-16T09:28:18;6.23;;;2.87;;
70908;SDS011;58554;52.006;5.926;2022-10-16T09:30:48;4.43;;;2.30;;
70908;SDS011;58554;52.006;5.926;2022-10-16T09:33:17;7.82;;;2.88;;
70908;SDS011;58554;52.006;5.926;2022-10-16T09:35:48;4.97;;;2.43;;
70908;SDS011;58554;52.006;5.926;2022-10-16T09:38:23;8.13;;;2.63;;
70908;SDS011;58554;52.006;5.926;2022-10-16T09:40:53;6.55;;;2.60;;
70908;SDS011;58554;52.006;5.926;2022-10-16T09:43:22;8.40;;;2.60;;
70908;SDS011;58554;52.006;5.926;2022-10-16T09:45:56;6.37;;;2.50;;
70908;SDS011;58554;52.006;5.926;2022-10-16T09:48:26;5.30;;;2.50;;
70908;SDS011;58554;52.006;5.926;2022-10-16T09:51:02;6.03;;;2.50;;
70908;SDS011;58554;52.006;5.926;2022-10-16T09:53:38;7.60;;;2.33;;
70908;SDS011;58554;52.006;5.926;2022-10-16T09:56:09;9.48;;;2.78;;
70908;SDS011;58554;52.006;5.926;2022-10-16T09:58:38;4.85;;;2.33;;
70908;SDS011;58554;52.006;5.926;2022-10-16T10:01:13;9.73;;;2.90;;
70908;SDS011;58554;52.006;5.926;2022-10-16T10:03:41;6.40;;;3.10;;
70908;SDS011;58554;52.006;5.926;2022-10-16T10:06:16;9.88;;;3.08;;
70908;SDS011;58554;52.006;5.926;2022-10-16T10:08:58;4.90;;;2.40;;
70908;SDS011;58554;52.006;5.926;2022-10-16T10:11:37;8.13;;;2.90;;
70908;SDS011;58554;52.006;5.926;2022-10-16T10:14:09;6.93;;;2.80;;
70908;SDS011;58554;52.006;5.926;2022-10-16T10:16:48;5.90;;;2.80;;
70908;SDS011;58554;52.006;5.926;2022-10-16T10:19:17;9.60;;;2.57;;
70908;SDS011;58554;52.006;5.926;2022-10-16T10:21:45;8.98;;;2.75;;
70908;SDS011;58554;52.006;5.926;2022-10-16T10:24:12;8.23;;;3.13;;
70908;SDS011;58554;52.006;5.926;2022-10-16T10:26:43;5.43;;;2.50;;
70908;SDS011;58554;52.006;5.926;2022-10-16T10:29:29;8.17;;;3.00;;
70908;SDS011;58554;52.006;5.926;2022-10-16T10:32:16;7.67;;;2.57;;
70908;SDS011;58554;52.006;5.926;2022-10-16T10:35:07;7.50;;;2.38;;
70908;SDS011;58554;52.006;5.926;2022-10-16T10:37:51;6.70;;;2.35;;
70908;SDS011;58554;52.006;5.926;2022-10-16T10:40:39;8.48;;;2.03;;
70908;SDS011;58554;52.006;5.926;2022-10-16T10:43:20;11.00;;;2.30;;
70908;SDS011;58554;52.006;5.926;2022-10-16T10:46:05;6.07;;;2.20;;
70908;SDS011;58554;52.006;5.926;2022-10-16T10:48:49;5.75;;;1.92;;
70908;SDS011;58554;52.006;5.926;2022-10-16T10:51:36;9.20;;;2.10;;
70908;SDS011;58554;52.006;5.926;2022-10-16T10:54:17;7.55;;;2.00;;
70908;SDS011;58554;52.006;5.926;2022-10-16T10:56:57;6.50;;;1.80;;
70908;SDS011;58554;52.006;5.926;2022-10-16T10:59:41;5.03;;;1.70;;
70908;SDS011;58554;52.006;5.926;2022-10-16T11:02:30;5.77;;;2.00;;
70908;SDS011;58554;52.006;5.926;2022-10-16T11:05:14;6.35;;;1.60;;
70908;SDS011;58554;52.006;5.926;2022-10-16T11:08:08;6.60;;;1.80;;
70908;SDS011;58554;52.006;5.926;2022-10-16T11:10:45;9.02;;;1.77;;
70908;SDS011;58554;52.006;5.926;2022-10-16T11:13:27;7.53;;;1.70;;
70908;SDS011;58554;52.006;5.926;2022-10-16T11:16:02;8.82;;;1.80;;
70908;SDS011;58554;52.006;5.926;2022-10-16T11:18:43;10.00;;;1.88;;
70908;SDS011;58554;52.006;5.926;2022-10-16T11:21:21;7.13;;;2.00;;
70908;SDS011;58554;52.006;5.926;2022-10-16T11:23:53;7.05;;;1.98;;
70908;SDS011;58554;52.006;5.926;2022-10-16T11:26:30;7.87;;;1.63;;
70908;SDS011;58554;52.006;5.926;2022-10-16T11:29:07;9.67;;;1.83;;
70908;SDS011;58554;52.006;5.926;2022-10-16T11:31:46;6.13;;;1.90;;
70908;SDS011;58554;52.006;5.926;2022-10-16T11:34:22;9.95;;;1.90;;
70908;SDS011;58554;52.006;5.926;2022-10-16T11:37:01;5.63;;;2.13;;
70908;SDS011;58554;52.006;5.926;2022-10-16T11:39:36;6.27;;;1.97;;
70908;SDS011;58554;52.006;5.926;2022-10-16T11:42:07;5.57;;;1.83;;
70908;SDS011;58554;52.006;5.926;2022-10-16T11:44:44;7.15;;;1.80;;
70908;SDS011;58554;52.006;5.926;2022-10-16T11:47:26;6.07;;;1.80;;
70908;SDS011;58554;52.006;5.926;2022-10-16T11:50:02;8.63;;;1.93;;
70908;SDS011;58554;52.006;5.926;2022-10-16T11:52:44;8.23;;;1.90;;
70908;SDS011;58554;52.006;5.926;2022-10-16T11:55:22;6.63;;;2.00;;
70908;SDS011;58554;52.006;5.926;2022-10-16T11:57:58;6.17;;;1.70;;
70908;SDS011;58554;52.006;5.926;2022-10-16T12:00:31;8.35;;;1.98;;
70908;SDS011;58554;52.006;5.926;2022-10-16T12:03:11;9.73;;;1.90;;
70908;SDS011;58554;52.006;5.926;2022-10-16T12:05:52;6.00;;;1.90;;
70908;SDS011;58554;52.006;5.926;2022-10-16T12:08:35;7.80;;;2.38;;
70908;SDS011;58554;52.006;5.926;2022-10-16T12:11:07;7.37;;;2.03;;
70908;SDS011;58554;52.006;5.926;2022-10-16T12:13:46;6.33;;;1.90;;
70908;SDS011;58554;52.006;5.926;2022-10-16T12:16:22;7.20;;;2.20;;
70908;SDS011;58554;52.006;5.926;2022-10-16T12:18:50;6.07;;;1.80;;
70908;SDS011;58554;52.006;5.926;2022-10-16T12:21:37;7.17;;;2.00;;
70908;SDS011;58554;52.006;5.926;2022-10-16T12:24:18;5.22;;;1.90;;
70908;SDS011;58554;52.006;5.926;2022-10-16T12:26:54;7.43;;;1.70;;
70908;SDS011;58554;52.006;5.926;2022-10-16T12:29:23;7.47;;;1.97;;
70908;SDS011;58554;52.006;5.926;2022-10-16T12:31:59;7.75;;;2.10;;
70908;SDS011;58554;52.006;5.926;2022-10-16T12:34:28;4.50;;;1.60;;
70908;SDS011;58554;52.006;5.926;2022-10-16T12:37:08;6.90;;;2.20;;
70908;SDS011;58554;52.006;5.926;2022-10-16T12:39:43;4.95;;;1.73;;
70908;SDS011;58554;52.006;5.926;2022-10-16T12:42:23;6.37;;;1.90;;
70908;SDS011;58554;52.006;5.926;2022-10-16T12:44:59;5.10;;;1.70;;
70908;SDS011;58554;52.006;5.926;2022-10-16T12:47:36;6.97;;;2.00;;
70908;SDS011;58554;52.006;5.926;2022-10-16T12:52:58;5.87;;;1.67;;
70908;SDS011;58554;52.006;5.926;2022-10-16T12:55:35;6.77;;;1.90;;
70908;SDS011;58554;52.006;5.926;2022-10-16T12:58:25;7.40;;;1.83;;
70908;SDS011;58554;52.006;5.926;2022-10-16T13:01:18;9.17;;;1.90;;
70908;SDS011;58554;52.006;5.926;2022-10-16T13:04:05;7.50;;;1.90;;
70908;SDS011;58554;52.006;5.926;2022-10-16T13:06:56;7.40;;;2.07;;
70908;SDS011;58554;52.006;5.926;2022-10-16T13:09:43;7.47;;;2.13;;
70908;SDS011;58554;52.006;5.926;2022-10-16T13:12:36;6.95;;;2.10;;
70908;SDS011;58554;52.006;5.926;2022-10-16T13:15:27;8.10;;;2.10;;
70908;SDS011;58554;52.006;5.926;2022-10-16T13:18:13;9.47;;;2.03;;
70908;SDS011;58554;52.006;5.926;2022-10-16T13:20:56;8.77;;;2.37;;
70908;SDS011;58554;52.006;5.926;2022-10-16T13:23:43;7.17;;;2.70;;
70908;SDS011;58554;52.006;5.926;2022-10-16T13:26:23;7.80;;;2.50;;
70908;SDS011;58554;52.006;5.926;2022-10-16T13:29:04;7.05;;;2.03;;
70908;SDS011;58554;52.006;5.926;2022-10-16T13:31:31;7.83;;;1.97;;
70908;SDS011;58554;52.006;5.926;2022-10-16T13:33:58;10.52;;;2.13;;
70908;SDS011;58554;52.006;5.926;2022-10-16T13:36:27;5.97;;;2.00;;
70908;SDS011;58554;52.006;5.926;2022-10-16T13:39:00;6.53;;;2.03;;
70908;SDS011;58554;52.006;5.926;2022-10-16T13:41:38;8.80;;;2.50;;
70908;SDS011;58554;52.006;5.926;2022-10-16T13:44:11;5.97;;;1.80;;
70908;SDS011;58554;52.006;5.926;2022-10-16T13:46:43;6.82;;;2.38;;
70908;SDS011;58554;52.006;5.926;2022-10-16T13:49:13;6.63;;;2.37;;
70908;SDS011;58554;52.006;5.926;2022-10-16T13:51:53;9.80;;;2.10;;
70908;SDS011;58554;52.006;5.926;2022-10-16T13:54:22;7.77;;;2.10;;
70908;SDS011;58554;52.006;5.926;2022-10-16T13:56:49;7.73;;;2.47;;
70908;SDS011;58554;52.006;5.926;2022-10-16T13:59:25;10.07;;;2.33;;
70908;SDS011;58554;52.006;5.926;2022-10-16T14:01:58;7.40;;;2.15;;
70908;SDS011;58554;52.006;5.926;2022-10-16T14:04:37;5.57;;;2.20;;
70908;SDS011;58554;52.006;5.926;2022-10-16T14:07:05;6.80;;;2.00;;
70908;SDS011;58554;52.006;5.926;2022-10-16T14:09:38;8.00;;;2.27;;
70908;SDS011;58554;52.006;5.926;2022-10-16T14:12:07;9.80;;;2.40;;
70908;SDS011;58554;52.006;5.926;2022-10-16T14:14:42;7.28;;;2.20;;
70908;SDS011;58554;52.006;5.926;2022-10-16T14:17:15;8.50;;;2.13;;
70908;SDS011;58554;52.006;5.926;2022-10-16T14:19:46;5.68;;;2.20;;
70908;SDS011;58554;52.006;5.926;2022-10-16T14:22:19;6.57;;;1.93;;
70908;SDS011;58554;52.006;5.926;2022-10-16T14:24:56;8.20;;;2.37;;
70908;SDS011;58554;52.006;5.926;2022-10-16T14:27:27;8.60;;;2.30;;
70908;SDS011;58554;52.006;5.926;2022-10-16T14:30:16;10.33;;;2.80;;
70908;SDS011;58554;52.006;5.926;2022-10-16T14:32:55;8.70;;;2.13;;
70908;SDS011;58554;52.006;5.926;2022-10-16T14:35:25;8.03;;;2.37;;
70908;SDS011;58554;52.006;5.926;2022-10-16T14:37:56;6.43;;;2.47;;
70908;SDS011;58554;52.006;5.926;2022-10-16T14:40:26;10.32;;;2.38;;
70908;SDS011;58554;52.006;5.926;2022-10-16T14:42:55;8.10;;;2.03;;
70908;SDS011;58554;52.006;5.926;2022-10-16T14:45:27;6.97;;;2.40;;
70908;SDS011;58554;52.006;5.926;2022-10-16T14:47:57;7.13;;;2.20;;
70908;SDS011;58554;52.006;5.926;2022-10-16T14:50:28;6.33;;;2.13;;
70908;SDS011;58554;52.006;5.926;2022-10-16T14:52:54;5.23;;;2.27;;
70908;SDS011;58554;52.006;5.926;2022-10-16T14:55:21;5.13;;;2.33;;
70908;SDS011;58554;52.006;5.926;2022-10-16T14:57:48;7.13;;;2.40;;
70908;SDS011;58554;52.006;5.926;2022-10-16T15:00:16;4.90;;;2.13;;
70908;SDS011;58554;52.006;5.926;2022-10-16T15:02:50;7.23;;;2.70;;
70908;SDS011;58554;52.006;5.926;2022-10-16T15:05:17;8.73;;;2.30;;
70908;SDS011;58554;52.006;5.926;2022-10-16T15:07:46;7.57;;;2.50;;
70908;SDS011;58554;52.006;5.926;2022-10-16T15:10:13;8.13;;;2.47;;
70908;SDS011;58554;52.006;5.926;2022-10-16T15:12:42;9.60;;;2.73;;
70908;SDS011;58554;52.006;5.926;2022-10-16T15:15:23;5.95;;;2.40;;
70908;SDS011;58554;52.006;5.926;2022-10-16T15:18:01;9.68;;;2.53;;
70908;SDS011;58554;52.006;5.926;2022-10-16T15:20:30;7.50;;;2.40;;